sensor_id;sensor_type;location;lat;lon;timestamp;temperature;humidity
24152;DHT22;12311;50.866;4.332;2022-11-21T00:01:58;7.60;99.90
24152;DHT22;12311;50.866;4.332;2022-11-21T00:04:24;7.60;99.90
24152;DHT22;12311;50.866;4.332;2022-11-21T00:06:50;7.60;99.90
24152;DHT22;12311;50.866;4.332;2022-11-21T00:09:17;7.60;99.90
24152;DHT22;12311;50.866;4.332;2022-11-21T00:11:43;7.50;99.90
24152;DHT22;12311;50.866;4.332;2022-11-21T00:14:08;7.40;99.90
24152;DHT22;12311;50.866;4.332;2022-11-21T00:16:34;7.40;99.90
24152;DHT22;12311;50.866;4.332;2022-11-21T00:18:59;7.40;99.90
24152;DHT22;12311;50.866;4.332;2022-11-21T00:21:25;7.40;99.90
24152;DHT22;12311;50.866;4.332;2022-11-21T00:23:52;7.30;99.90
24152;DHT22;12311;50.866;4.332;2022-11-21T00:26:17;7.30;99.90
24152;DHT22;12311;50.866;4.332;2022-11-21T00:28:43;7.30;99.90
24152;DHT22;12311;50.866;4.332;2022-11-21T00:31:20;7.20;99.90
24152;DHT22;12311;50.866;4.332;2022-11-21T00:33:46;7.20;99.90
24152;DHT22;12311;50.866;4.332;2022-11-21T00:36:12;7.20;99.90
24152;DHT22;12311;50.866;4.332;2022-11-21T00:38:37;7.20;99.90
24152;DHT22;12311;50.866;4.332;2022-11-21T00:41:03;7.20;99.90
24152;DHT22;12311;50.866;4.332;2022-11-21T00:43:29;7.20;99.90
24152;DHT22;12311;50.866;4.332;2022-11-21T00:45:55;7.20;99.90
24152;DHT22;12311;50.866;4.332;2022-11-21T00:48:20;7.30;99.90
24152;DHT22;12311;50.866;4.332;2022-11-21T00:50:49;7.20;99.90
24152;DHT22;12311;50.866;4.332;2022-11-21T00:53:14;7.30;99.90
24152;DHT22;12311;50.866;4.332;2022-11-21T00:55:41;7.20;99.90
24152;DHT22;12311;50.866;4.332;2022-11-21T00:58:06;7.30;99.90
24152;DHT22;12311;50.866;4.332;2022-11-21T01:00:32;7.30;99.90
24152;DHT22;12311;50.866;4.332;2022-11-21T01:02:58;7.30;99.90
24152;DHT22;12311;50.866;4.332;2022-11-21T01:05:23;7.30;99.90
24152;DHT22;12311;50.866;4.332;2022-11-21T01:07:49;7.50;99.90
24152;DHT22;12311;50.866;4.332;2022-11-21T01:10:14;7.40;99.90
24152;DHT22;12311;50.866;4.332;2022-11-21T01:12:40;7.40;99.90
24152;DHT22;12311;50.866;4.332;2022-11-21T01:15:06;7.30;99.90
24152;DHT22;12311;50.866;4.332;2022-11-21T01:17:32;7.30;99.90
24152;DHT22;12311;50.866;4.332;2022-11-21T01:19:58;7.30;99.90
24152;DHT22;12311;50.866;4.332;2022-11-21T01:22:24;7.20;99.90
24152;DHT22;12311;50.866;4.332;2022-11-21T01:24:49;7.10;99.90
24152;DHT22;12311;50.866;4.332;2022-11-21T01:27:15;7.10;99.90
24152;DHT22;12311;50.866;4.332;2022-11-21T01:29:41;7.10;99.90
24152;DHT22;12311;50.866;4.332;2022-11-21T01:32:06;7.20;99.90
24152;DHT22;12311;50.866;4.332;2022-11-21T01:34:32;7.10;99.90
24152;DHT22;12311;50.866;4.332;2022-11-21T01:36:58;7.10;99.90
24152;DHT22;12311;50.866;4.332;2022-11-21T01:39:24;7.20;99.90
24152;DHT22;12311;50.866;4.332;2022-11-21T01:41:49;7.30;99.90
24152;DHT22;12311;50.866;4.332;2022-11-21T01:44:57;7.20;99.90
24152;DHT22;12311;50.866;4.332;2022-11-21T01:47:04;7.20;99.90
24152;DHT22;12311;50.866;4.332;2022-11-21T01:49:31;7.20;99.90
24152;DHT22;12311;50.866;4.332;2022-11-21T01:52:10;7.30;99.90
24152;DHT22;12311;50.866;4.332;2022-11-21T01:54:42;7.20;99.90
24152;DHT22;12311;50.866;4.332;2022-11-21T01:59:53;7.30;99.90
24152;DHT22;12311;50.866;4.332;2022-11-21T02:02:22;7.30;99.90
24152;DHT22;12311;50.866;4.332;2022-11-21T02:04:49;7.30;99.90
24152;DHT22;12311;50.866;4.332;2022-11-21T02:07:17;7.20;99.90
24152;DHT22;12311;50.866;4.332;2022-11-21T02:09:47;7.20;99.90
24152;DHT22;12311;50.866;4.332;2022-11-21T02:12:20;7.20;99.90
24152;DHT22;12311;50.866;4.332;2022-11-21T02:14:47;7.30;99.90
24152;DHT22;12311;50.866;4.332;2022-11-21T02:17:13;7.30;99.90
24152;DHT22;12311;50.866;4.332;2022-11-21T02:22:15;7.30;99.90
24152;DHT22;12311;50.866;4.332;2022-11-21T02:27:17;7.20;99.90
24152;DHT22;12311;50.866;4.332;2022-11-21T02:29:43;7.00;99.90
24152;DHT22;12311;50.866;4.332;2022-11-21T02:32:23;7.00;99.90
24152;DHT22;12311;50.866;4.332;2022-11-21T02:34:49;7.00;99.90
24152;DHT22;12311;50.866;4.332;2022-11-21T02:37:16;6.90;99.90
24152;DHT22;12311;50.866;4.332;2022-11-21T02:39:43;6.90;99.90
24152;DHT22;12311;50.866;4.332;2022-11-21T02:42:32;6.90;99.90
24152;DHT22;12311;50.866;4.332;2022-11-21T02:45:20;6.90;99.90
24152;DHT22;12311;50.866;4.332;2022-11-21T02:47:47;6.80;99.90
24152;DHT22;12311;50.866;4.332;2022-11-21T02:50:35;6.80;99.90
24152;DHT22;12311;50.866;4.332;2022-11-21T02:53:02;6.90;99.90
24152;DHT22;12311;50.866;4.332;2022-11-21T02:55:29;6.90;99.90
24152;DHT22;12311;50.866;4.332;2022-11-21T02:57:54;6.90;99.90
24152;DHT22;12311;50.866;4.332;2022-11-21T03:00:21;6.90;99.90
24152;DHT22;12311;50.866;4.332;2022-11-21T03:02:47;6.80;99.90
24152;DHT22;12311;50.866;4.332;2022-11-21T03:05:15;6.80;99.90
24152;DHT22;12311;50.866;4.332;2022-11-21T03:07:41;6.80;99.90
24152;DHT22;12311;50.866;4.332;2022-11-21T03:10:07;6.80;99.90
24152;DHT22;12311;50.866;4.332;2022-11-21T03:12:37;6.80;99.90
24152;DHT22;12311;50.866;4.332;2022-11-21T03:15:05;6.70;99.90
24152;DHT22;12311;50.866;4.332;2022-11-21T03:17:31;6.70;99.90
24152;DHT22;12311;50.866;4.332;2022-11-21T03:19:57;6.70;99.90
24152;DHT22;12311;50.866;4.332;2022-11-21T03:22:23;6.80;99.90
24152;DHT22;12311;50.866;4.332;2022-11-21T03:24:49;6.80;99.90
24152;DHT22;12311;50.866;4.332;2022-11-21T03:27:14;6.80;99.90
24152;DHT22;12311;50.866;4.332;2022-11-21T03:29:40;6.70;99.90
24152;DHT22;12311;50.866;4.332;2022-11-21T03:32:05;6.60;99.90
24152;DHT22;12311;50.866;4.332;2022-11-21T03:34:31;6.60;99.90
24152;DHT22;12311;50.866;4.332;2022-11-21T03:36:57;6.70;99.90
24152;DHT22;12311;50.866;4.332;2022-11-21T03:39:23;6.70;99.90
24152;DHT22;12311;50.866;4.332;2022-11-21T03:41:48;6.70;99.90
24152;DHT22;12311;50.866;4.332;2022-11-21T03:44:14;6.70;99.90
24152;DHT22;12311;50.866;4.332;2022-11-21T03:46:43;6.70;99.90
24152;DHT22;12311;50.866;4.332;2022-11-21T03:49:09;6.70;99.90
24152;DHT22;12311;50.866;4.332;2022-11-21T03:51:36;6.70;99.90
24152;DHT22;12311;50.866;4.332;2022-11-21T03:54:02;6.70;99.90
24152;DHT22;12311;50.866;4.332;2022-11-21T03:56:28;6.60;99.90
24152;DHT22;12311;50.866;4.332;2022-11-21T03:58:54;6.70;99.90
24152;DHT22;12311;50.866;4.332;2022-11-21T04:01:20;6.60;99.90
24152;DHT22;12311;50.866;4.332;2022-11-21T04:03:46;6.70;99.90
24152;DHT22;12311;50.866;4.332;2022-11-21T04:06:14;6.70;99.90
24152;DHT22;12311;50.866;4.332;2022-11-21T04:08:40;6.70;99.90
24152;DHT22;12311;50.866;4.332;2022-11-21T04:11:06;6.70;99.90
24152;DHT22;12311;50.866;4.332;2022-11-21T04:13:32;6.60;99.90
24152;DHT22;12311;50.866;4.332;2022-11-21T04:15:57;6.70;99.90
24152;DHT22;12311;50.866;4.332;2022-11-21T04:18:23;6.60;99.90
24152;DHT22;12311;50.866;4.332;2022-11-21T04:20:57;6.60;99.90
24152;DHT22;12311;50.866;4.332;2022-11-21T04:23:23;6.60;99.90
24152;DHT22;12311;50.866;4.332;2022-11-21T04:25:49;6.60;99.90
24152;DHT22;12311;50.866;4.332;2022-11-21T04:28:14;6.60;99.90
24152;DHT22;12311;50.866;4.332;2022-11-21T04:30:40;6.60;99.90
24152;DHT22;12311;50.866;4.332;2022-11-21T04:33:05;6.60;99.90
24152;DHT22;12311;50.866;4.332;2022-11-21T04:35:31;6.60;99.90
24152;DHT22;12311;50.866;4.332;2022-11-21T04:37:57;6.70;99.90
24152;DHT22;12311;50.866;4.332;2022-11-21T04:40:23;6.60;99.90
24152;DHT22;12311;50.866;4.332;2022-11-21T04:42:48;6.50;99.90
24152;DHT22;12311;50.866;4.332;2022-11-21T04:45:15;6.60;99.90
24152;DHT22;12311;50.866;4.332;2022-11-21T04:47:43;6.50;99.90
24152;DHT22;12311;50.866;4.332;2022-11-21T04:50:10;6.50;99.90
24152;DHT22;12311;50.866;4.332;2022-11-21T04:52:36;6.50;99.90
24152;DHT22;12311;50.866;4.332;2022-11-21T04:55:03;6.40;99.90
24152;DHT22;12311;50.866;4.332;2022-11-21T04:57:30;6.30;99.90
24152;DHT22;12311;50.866;4.332;2022-11-21T04:59:56;6.30;99.90
24152;DHT22;12311;50.866;4.332;2022-11-21T05:02:22;6.20;99.90
24152;DHT22;12311;50.866;4.332;2022-11-21T05:04:48;6.20;99.90
24152;DHT22;12311;50.866;4.332;2022-11-21T05:07:14;6.20;99.90
24152;DHT22;12311;50.866;4.332;2022-11-21T05:09:40;6.20;99.90
24152;DHT22;12311;50.866;4.332;2022-11-21T05:12:06;6.10;99.90
24152;DHT22;12311;50.866;4.332;2022-11-21T05:14:51;6.10;99.90
24152;DHT22;12311;50.866;4.332;2022-11-21T05:17:17;6.00;99.90
24152;DHT22;12311;50.866;4.332;2022-11-21T05:19:43;6.00;99.90
24152;DHT22;12311;50.866;4.332;2022-11-21T05:22:08;6.00;99.90
24152;DHT22;12311;50.866;4.332;2022-11-21T05:24:34;6.10;99.90
24152;DHT22;12311;50.866;4.332;2022-11-21T05:27:00;6.00;99.90
24152;DHT22;12311;50.866;4.332;2022-11-21T05:29:25;6.00;99.90
24152;DHT22;12311;50.866;4.332;2022-11-21T05:31:51;5.90;99.90
24152;DHT22;12311;50.866;4.332;2022-11-21T05:34:16;5.90;99.90
24152;DHT22;12311;50.866;4.332;2022-11-21T05:36:42;5.90;99.90
24152;DHT22;12311;50.866;4.332;2022-11-21T05:39:08;5.80;99.90
24152;DHT22;12311;50.866;4.332;2022-11-21T05:41:33;5.80;99.90
24152;DHT22;12311;50.866;4.332;2022-11-21T05:43:59;5.70;99.90
24152;DHT22;12311;50.866;4.332;2022-11-21T05:46:25;5.70;99.90
24152;DHT22;12311;50.866;4.332;2022-11-21T05:48:52;5.70;99.90
24152;DHT22;12311;50.866;4.332;2022-11-21T05:51:19;5.60;99.90
24152;DHT22;12311;50.866;4.332;2022-11-21T05:53:45;5.50;99.90
24152;DHT22;12311;50.866;4.332;2022-11-21T05:56:15;5.60;99.90
24152;DHT22;12311;50.866;4.332;2022-11-21T05:58:42;5.60;99.90
24152;DHT22;12311;50.866;4.332;2022-11-21T06:01:09;5.50;99.90
24152;DHT22;12311;50.866;4.332;2022-11-21T06:03:40;5.50;99.90
24152;DHT22;12311;50.866;4.332;2022-11-21T06:08:35;5.40;99.90
24152;DHT22;12311;50.866;4.332;2022-11-21T06:11:01;5.40;99.90
24152;DHT22;12311;50.866;4.332;2022-11-21T06:13:28;5.40;99.90
24152;DHT22;12311;50.866;4.332;2022-11-21T06:16:06;5.40;99.90
24152;DHT22;12311;50.866;4.332;2022-11-21T06:18:34;5.40;99.90
24152;DHT22;12311;50.866;4.332;2022-11-21T06:21:08;5.30;99.90
24152;DHT22;12311;50.866;4.332;2022-11-21T06:23:34;5.30;99.90
24152;DHT22;12311;50.866;4.332;2022-11-21T06:26:02;5.30;99.90
24152;DHT22;12311;50.866;4.332;2022-11-21T06:28:38;5.30;99.90
24152;DHT22;12311;50.866;4.332;2022-11-21T06:31:12;5.30;99.90
24152;DHT22;12311;50.866;4.332;2022-11-21T06:33:39;5.30;99.90
24152;DHT22;12311;50.866;4.332;2022-11-21T06:36:16;5.40;99.90
24152;DHT22;12311;50.866;4.332;2022-11-21T06:38:42;5.30;99.90
24152;DHT22;12311;50.866;4.332;2022-11-21T06:41:13;5.20;99.90
24152;DHT22;12311;50.866;4.332;2022-11-21T06:43:40;5.10;99.90
24152;DHT22;12311;50.866;4.332;2022-11-21T06:46:06;5.10;99.90
24152;DHT22;12311;50.866;4.332;2022-11-21T06:48:33;5.00;99.90
24152;DHT22;12311;50.866;4.332;2022-11-21T06:51:07;5.00;99.90
24152;DHT22;12311;50.866;4.332;2022-11-21T06:53:33;5.00;99.90
24152;DHT22;12311;50.866;4.332;2022-11-21T06:56:00;5.00;99.90
24152;DHT22;12311;50.866;4.332;2022-11-21T06:58:26;5.00;99.90
24152;DHT22;12311;50.866;4.332;2022-11-21T07:00:52;5.00;99.90
24152;DHT22;12311;50.866;4.332;2022-11-21T07:03:18;5.00;99.90
24152;DHT22;12311;50.866;4.332;2022-11-21T07:05:43;5.00;99.90
24152;DHT22;12311;50.866;4.332;2022-11-21T07:08:09;5.00;99.90
24152;DHT22;12311;50.866;4.332;2022-11-21T07:10:35;5.00;99.90
24152;DHT22;12311;50.866;4.332;2022-11-21T07:13:00;5.00;99.90
24152;DHT22;12311;50.866;4.332;2022-11-21T07:15:46;5.00;99.90
24152;DHT22;12311;50.866;4.332;2022-11-21T07:18:12;5.00;99.90
24152;DHT22;12311;50.866;4.332;2022-11-21T07:20:39;5.00;99.90
24152;DHT22;12311;50.866;4.332;2022-11-21T07:23:06;5.00;99.90
24152;DHT22;12311;50.866;4.332;2022-11-21T07:25:32;5.00;99.90
24152;DHT22;12311;50.866;4.332;2022-11-21T07:27:59;5.10;99.90
24152;DHT22;12311;50.866;4.332;2022-11-21T07:30:25;5.10;99.90
24152;DHT22;12311;50.866;4.332;2022-11-21T07:32:55;5.00;99.90
24152;DHT22;12311;50.866;4.332;2022-11-21T07:35:21;5.00;99.90
24152;DHT22;12311;50.866;4.332;2022-11-21T07:37:47;5.10;99.90
24152;DHT22;12311;50.866;4.332;2022-11-21T07:40:13;5.10;99.90
24152;DHT22;12311;50.866;4.332;2022-11-21T07:42:38;5.20;99.90
24152;DHT22;12311;50.866;4.332;2022-11-21T07:45:04;5.20;99.90
24152;DHT22;12311;50.866;4.332;2022-11-21T07:47:30;5.20;99.90
24152;DHT22;12311;50.866;4.332;2022-11-21T07:49:56;5.20;99.90
24152;DHT22;12311;50.866;4.332;2022-11-21T07:52:21;5.20;99.90
24152;DHT22;12311;50.866;4.332;2022-11-21T07:54:47;5.20;99.90
24152;DHT22;12311;50.866;4.332;2022-11-21T07:57:13;5.30;99.90
24152;DHT22;12311;50.866;4.332;2022-11-21T07:59:38;5.30;99.90
24152;DHT22;12311;50.866;4.332;2022-11-21T08:02:04;5.40;99.90
24152;DHT22;12311;50.866;4.332;2022-11-21T08:04:30;5.40;99.90
24152;DHT22;12311;50.866;4.332;2022-11-21T08:06:55;5.50;99.90
24152;DHT22;12311;50.866;4.332;2022-11-21T08:09:21;5.50;99.90
24152;DHT22;12311;50.866;4.332;2022-11-21T08:11:46;5.50;99.90
24152;DHT22;12311;50.866;4.332;2022-11-21T08:14:12;5.50;99.90
24152;DHT22;12311;50.866;4.332;2022-11-21T08:16:38;5.50;99.90
24152;DHT22;12311;50.866;4.332;2022-11-21T08:19:04;5.50;99.90
24152;DHT22;12311;50.866;4.332;2022-11-21T08:21:30;5.60;99.90
24152;DHT22;12311;50.866;4.332;2022-11-21T08:23:56;5.70;99.90
24152;DHT22;12311;50.866;4.332;2022-11-21T08:26:22;5.70;99.90
24152;DHT22;12311;50.866;4.332;2022-11-21T08:28:47;5.80;99.90
24152;DHT22;12311;50.866;4.332;2022-11-21T08:31:13;5.80;99.90
24152;DHT22;12311;50.866;4.332;2022-11-21T08:33:39;5.80;99.90
24152;DHT22;12311;50.866;4.332;2022-11-21T08:36:05;5.80;99.90
24152;DHT22;12311;50.866;4.332;2022-11-21T08:38:31;5.90;99.90
24152;DHT22;12311;50.866;4.332;2022-11-21T08:40:57;5.90;99.90
24152;DHT22;12311;50.866;4.332;2022-11-21T08:43:42;5.90;99.90
24152;DHT22;12311;50.866;4.332;2022-11-21T08:46:10;5.90;99.90
24152;DHT22;12311;50.866;4.332;2022-11-21T08:48:36;6.00;99.90
24152;DHT22;12311;50.866;4.332;2022-11-21T08:51:01;6.10;99.90
24152;DHT22;12311;50.866;4.332;2022-11-21T08:53:27;6.10;99.90
24152;DHT22;12311;50.866;4.332;2022-11-21T08:55:53;6.20;99.90
24152;DHT22;12311;50.866;4.332;2022-11-21T08:58:19;6.20;99.90
24152;DHT22;12311;50.866;4.332;2022-11-21T09:00:44;6.30;99.90
24152;DHT22;12311;50.866;4.332;2022-11-21T09:03:10;6.30;99.90
24152;DHT22;12311;50.866;4.332;2022-11-21T09:05:36;6.40;99.90
24152;DHT22;12311;50.866;4.332;2022-11-21T09:08:01;6.50;99.90
24152;DHT22;12311;50.866;4.332;2022-11-21T09:10:27;6.60;99.90
24152;DHT22;12311;50.866;4.332;2022-11-21T09:12:59;6.60;99.90
24152;DHT22;12311;50.866;4.332;2022-11-21T09:15:24;6.60;99.90
24152;DHT22;12311;50.866;4.332;2022-11-21T09:18:10;6.70;99.90
24152;DHT22;12311;50.866;4.332;2022-11-21T09:20:42;6.90;99.90
24152;DHT22;12311;50.866;4.332;2022-11-21T09:23:11;7.00;99.90
24152;DHT22;12311;50.866;4.332;2022-11-21T09:25:37;7.20;99.90
24152;DHT22;12311;50.866;4.332;2022-11-21T09:28:04;7.30;99.90
24152;DHT22;12311;50.866;4.332;2022-11-21T09:30:29;7.40;99.90
24152;DHT22;12311;50.866;4.332;2022-11-21T09:33:02;7.50;99.90
24152;DHT22;12311;50.866;4.332;2022-11-21T09:35:28;7.60;99.90
24152;DHT22;12311;50.866;4.332;2022-11-21T09:37:54;7.70;99.90
24152;DHT22;12311;50.866;4.332;2022-11-21T09:40:20;7.80;99.90
24152;DHT22;12311;50.866;4.332;2022-11-21T09:47:50;7.70;99.90
24152;DHT22;12311;50.866;4.332;2022-11-21T09:53:12;8.10;99.90
24152;DHT22;12311;50.866;4.332;2022-11-21T09:56:00;8.40;99.90
24152;DHT22;12311;50.866;4.332;2022-11-21T09:58:37;8.40;99.90
24152;DHT22;12311;50.866;4.332;2022-11-21T10:01:04;8.50;99.90
24152;DHT22;12311;50.866;4.332;2022-11-21T10:03:37;8.60;99.90
24152;DHT22;12311;50.866;4.332;2022-11-21T10:11:39;8.40;99.90
24152;DHT22;12311;50.866;4.332;2022-11-21T10:14:38;8.20;99.90
24152;DHT22;12311;50.866;4.332;2022-11-21T10:17:13;8.20;99.90
24152;DHT22;12311;50.866;4.332;2022-11-21T10:25:35;7.80;99.90
24152;DHT22;12311;50.866;4.332;2022-11-21T10:28:26;7.70;99.90
24152;DHT22;12311;50.866;4.332;2022-11-21T10:30:57;7.60;99.90
24152;DHT22;12311;50.866;4.332;2022-11-21T10:33:31;7.50;99.90
24152;DHT22;12311;50.866;4.332;2022-11-21T10:36:01;7.40;99.90
24152;DHT22;12311;50.866;4.332;2022-11-21T10:38:30;7.30;99.90
24152;DHT22;12311;50.866;4.332;2022-11-21T10:41:11;7.40;99.90
24152;DHT22;12311;50.866;4.332;2022-11-21T10:43:53;7.60;99.90
24152;DHT22;12311;50.866;4.332;2022-11-21T10:46:39;7.60;99.90
24152;DHT22;12311;50.866;4.332;2022-11-21T10:49:09;7.70;99.90
24152;DHT22;12311;50.866;4.332;2022-11-21T10:54:16;7.90;99.90
24152;DHT22;12311;50.866;4.332;2022-11-21T10:57:12;8.00;99.90
24152;DHT22;12311;50.866;4.332;2022-11-21T10:59:39;8.00;99.90
24152;DHT22;12311;50.866;4.332;2022-11-21T11:04:40;8.30;99.90
24152;DHT22;12311;50.866;4.332;2022-11-21T11:07:26;8.30;99.90
24152;DHT22;12311;50.866;4.332;2022-11-21T11:10:21;8.40;99.90
24152;DHT22;12311;50.866;4.332;2022-11-21T11:12:50;8.50;99.90
24152;DHT22;12311;50.866;4.332;2022-11-21T11:15:36;8.60;99.90
24152;DHT22;12311;50.866;4.332;2022-11-21T11:18:05;8.50;99.90
24152;DHT22;12311;50.866;4.332;2022-11-21T11:25:51;8.70;99.90
24152;DHT22;12311;50.866;4.332;2022-11-21T11:28:18;8.70;99.90
24152;DHT22;12311;50.866;4.332;2022-11-21T11:30:45;8.50;99.90
24152;DHT22;12311;50.866;4.332;2022-11-21T11:36:37;8.50;99.90
24152;DHT22;12311;50.866;4.332;2022-11-21T11:39:17;8.60;99.90
24152;DHT22;12311;50.866;4.332;2022-11-21T11:42:06;8.70;99.90
24152;DHT22;12311;50.866;4.332;2022-11-21T11:45:29;8.80;99.90
24152;DHT22;12311;50.866;4.332;2022-11-21T11:48:18;8.80;99.90
24152;DHT22;12311;50.866;4.332;2022-11-21T11:50:53;8.90;99.90
24152;DHT22;12311;50.866;4.332;2022-11-21T11:53:25;9.00;99.90
24152;DHT22;12311;50.866;4.332;2022-11-21T11:56:19;9.00;99.90
24152;DHT22;12311;50.866;4.332;2022-11-21T12:01:58;9.00;99.90
24152;DHT22;12311;50.866;4.332;2022-11-21T12:04:28;9.10;99.90
24152;DHT22;12311;50.866;4.332;2022-11-21T12:17:37;9.00;99.90
24152;DHT22;12311;50.866;4.332;2022-11-21T12:20:18;9.00;99.90
24152;DHT22;12311;50.866;4.332;2022-11-21T12:22:47;9.00;99.90
24152;DHT22;12311;50.866;4.332;2022-11-21T12:25:14;9.10;99.90
24152;DHT22;12311;50.866;4.332;2022-11-21T12:27:41;9.30;99.90
24152;DHT22;12311;50.866;4.332;2022-11-21T12:33:11;9.30;99.90
24152;DHT22;12311;50.866;4.332;2022-11-21T12:44:12;9.30;99.90
24152;DHT22;12311;50.866;4.332;2022-11-21T12:52:56;9.40;99.90
24152;DHT22;12311;50.866;4.332;2022-11-21T12:55:41;9.60;99.90
24152;DHT22;12311;50.866;4.332;2022-11-21T13:03:38;9.70;99.90
24152;DHT22;12311;50.866;4.332;2022-11-21T13:06:21;9.70;99.90
24152;DHT22;12311;50.866;4.332;2022-11-21T13:08:48;9.80;99.90
24152;DHT22;12311;50.866;4.332;2022-11-21T13:20:12;9.80;99.90
24152;DHT22;12311;50.866;4.332;2022-11-21T13:30:50;9.60;99.90
24152;DHT22;12311;50.866;4.332;2022-11-21T13:36:05;9.60;99.90
24152;DHT22;12311;50.866;4.332;2022-11-21T13:44:38;9.60;99.90
24152;DHT22;12311;50.866;4.332;2022-11-21T13:58:10;9.70;99.90
24152;DHT22;12311;50.866;4.332;2022-11-21T14:06:32;9.70;99.90
24152;DHT22;12311;50.866;4.332;2022-11-21T14:09:24;9.80;99.90
24152;DHT22;12311;50.866;4.332;2022-11-21T14:11:57;9.80;99.90
24152;DHT22;12311;50.866;4.332;2022-11-21T14:14:30;9.70;99.90
24152;DHT22;12311;50.866;4.332;2022-11-21T14:19:58;9.60;99.90
24152;DHT22;12311;50.866;4.332;2022-11-21T14:22:41;9.50;99.90
24152;DHT22;12311;50.866;4.332;2022-11-21T14:25:08;9.60;99.90
24152;DHT22;12311;50.866;4.332;2022-11-21T14:27:40;9.60;99.90
24152;DHT22;12311;50.866;4.332;2022-11-21T14:32:55;9.50;99.90
24152;DHT22;12311;50.866;4.332;2022-11-21T14:35:22;9.50;99.90
24152;DHT22;12311;50.866;4.332;2022-11-21T14:37:49;9.40;99.90
24152;DHT22;12311;50.866;4.332;2022-11-21T14:40:23;9.40;99.90
24152;DHT22;12311;50.866;4.332;2022-11-21T14:42:49;9.40;99.90
24152;DHT22;12311;50.866;4.332;2022-11-21T14:45:21;9.30;99.90
24152;DHT22;12311;50.866;4.332;2022-11-21T14:47:51;9.30;99.90
24152;DHT22;12311;50.866;4.332;2022-11-21T14:50:32;9.30;99.90
24152;DHT22;12311;50.866;4.332;2022-11-21T14:52:59;9.30;99.90
24152;DHT22;12311;50.866;4.332;2022-11-21T14:55:30;9.40;99.90
24152;DHT22;12311;50.866;4.332;2022-11-21T14:57:59;9.40;99.90
24152;DHT22;12311;50.866;4.332;2022-11-21T15:00:27;9.40;99.90
24152;DHT22;12311;50.866;4.332;2022-11-21T15:02:55;9.30;99.90
24152;DHT22;12311;50.866;4.332;2022-11-21T15:05:27;9.30;99.90
24152;DHT22;12311;50.866;4.332;2022-11-21T15:07:53;9.40;99.90
24152;DHT22;12311;50.866;4.332;2022-11-21T15:10:21;9.30;99.90
24152;DHT22;12311;50.866;4.332;2022-11-21T15:12:53;9.30;99.90
24152;DHT22;12311;50.866;4.332;2022-11-21T15:15:37;9.30;99.90
24152;DHT22;12311;50.866;4.332;2022-11-21T15:18:06;9.30;99.90
24152;DHT22;12311;50.866;4.332;2022-11-21T15:20:32;9.30;99.90
24152;DHT22;12311;50.866;4.332;2022-11-21T15:23:01;9.20;99.90
24152;DHT22;12311;50.866;4.332;2022-11-21T15:25:29;9.20;99.90
24152;DHT22;12311;50.866;4.332;2022-11-21T15:30:29;9.20;99.90
24152;DHT22;12311;50.866;4.332;2022-11-21T15:38:31;9.40;99.90
24152;DHT22;12311;50.866;4.332;2022-11-21T15:41:08;9.30;99.90
24152;DHT22;12311;50.866;4.332;2022-11-21T15:43:51;9.20;99.90
24152;DHT22;12311;50.866;4.332;2022-11-21T15:46:29;9.20;99.90
24152;DHT22;12311;50.866;4.332;2022-11-21T15:49:05;9.20;99.90
24152;DHT22;12311;50.866;4.332;2022-11-21T15:51:34;9.10;99.90
24152;DHT22;12311;50.866;4.332;2022-11-21T15:54:00;9.10;99.90
24152;DHT22;12311;50.866;4.332;2022-11-21T15:56:26;9.20;99.90
24152;DHT22;12311;50.866;4.332;2022-11-21T15:58:52;9.20;99.90
24152;DHT22;12311;50.866;4.332;2022-11-21T16:01:19;9.10;99.90
24152;DHT22;12311;50.866;4.332;2022-11-21T16:03:48;9.10;99.90
24152;DHT22;12311;50.866;4.332;2022-11-21T16:06:14;9.20;99.90
24152;DHT22;12311;50.866;4.332;2022-11-21T16:08:40;9.10;99.90
24152;DHT22;12311;50.866;4.332;2022-11-21T16:11:09;9.10;99.90
24152;DHT22;12311;50.866;4.332;2022-11-21T16:13:35;9.10;99.90
24152;DHT22;12311;50.866;4.332;2022-11-21T16:16:01;9.10;99.90
24152;DHT22;12311;50.866;4.332;2022-11-21T16:18:28;9.10;99.90
24152;DHT22;12311;50.866;4.332;2022-11-21T16:21:03;9.10;99.90
24152;DHT22;12311;50.866;4.332;2022-11-21T16:23:29;9.10;99.90
24152;DHT22;12311;50.866;4.332;2022-11-21T16:25:55;9.00;99.90
24152;DHT22;12311;50.866;4.332;2022-11-21T16:28:20;9.00;99.90
24152;DHT22;12311;50.866;4.332;2022-11-21T16:30:46;8.90;99.90
24152;DHT22;12311;50.866;4.332;2022-11-21T16:33:11;8.90;99.90
24152;DHT22;12311;50.866;4.332;2022-11-21T16:35:37;8.90;99.90
24152;DHT22;12311;50.866;4.332;2022-11-21T16:38:08;8.90;99.90
24152;DHT22;12311;50.866;4.332;2022-11-21T16:40:33;8.90;99.90
24152;DHT22;12311;50.866;4.332;2022-11-21T16:43:07;8.80;99.90
24152;DHT22;12311;50.866;4.332;2022-11-21T16:45:34;8.80;99.90
24152;DHT22;12311;50.866;4.332;2022-11-21T16:47:59;8.80;99.90
24152;DHT22;12311;50.866;4.332;2022-11-21T16:50:25;8.70;99.90
24152;DHT22;12311;50.866;4.332;2022-11-21T16:52:50;8.70;99.90
24152;DHT22;12311;50.866;4.332;2022-11-21T16:55:16;8.60;99.90
24152;DHT22;12311;50.866;4.332;2022-11-21T16:57:41;8.60;99.90
24152;DHT22;12311;50.866;4.332;2022-11-21T17:00:09;8.60;99.90
24152;DHT22;12311;50.866;4.332;2022-11-21T17:02:39;8.50;99.90
24152;DHT22;12311;50.866;4.332;2022-11-21T17:05:05;8.50;99.90
24152;DHT22;12311;50.866;4.332;2022-11-21T17:07:31;8.50;99.90
24152;DHT22;12311;50.866;4.332;2022-11-21T17:09:57;8.50;99.90
24152;DHT22;12311;50.866;4.332;2022-11-21T17:12:23;8.50;99.90
24152;DHT22;12311;50.866;4.332;2022-11-21T17:14:49;8.50;99.90
24152;DHT22;12311;50.866;4.332;2022-11-21T17:17:15;8.50;99.90
24152;DHT22;12311;50.866;4.332;2022-11-21T17:19:41;8.40;99.90
24152;DHT22;12311;50.866;4.332;2022-11-21T17:22:07;8.50;99.90
24152;DHT22;12311;50.866;4.332;2022-11-21T17:24:33;8.50;99.90
24152;DHT22;12311;50.866;4.332;2022-11-21T17:26:59;8.40;99.90
24152;DHT22;12311;50.866;4.332;2022-11-21T17:29:29;8.50;99.90
24152;DHT22;12311;50.866;4.332;2022-11-21T17:31:55;8.40;99.90
24152;DHT22;12311;50.866;4.332;2022-11-21T17:34:21;8.30;99.90
24152;DHT22;12311;50.866;4.332;2022-11-21T17:36:47;8.30;99.90
24152;DHT22;12311;50.866;4.332;2022-11-21T17:39:13;8.30;99.90
24152;DHT22;12311;50.866;4.332;2022-11-21T17:41:38;8.30;99.90
24152;DHT22;12311;50.866;4.332;2022-11-21T17:44:05;8.30;99.90
24152;DHT22;12311;50.866;4.332;2022-11-21T17:46:30;8.30;99.90
24152;DHT22;12311;50.866;4.332;2022-11-21T17:48:57;8.30;99.90
24152;DHT22;12311;50.866;4.332;2022-11-21T17:51:25;8.30;99.90
24152;DHT22;12311;50.866;4.332;2022-11-21T17:53:51;8.30;99.90
24152;DHT22;12311;50.866;4.332;2022-11-21T17:56:20;8.30;99.90
24152;DHT22;12311;50.866;4.332;2022-11-21T17:58:46;8.30;99.90
24152;DHT22;12311;50.866;4.332;2022-11-21T18:01:12;8.20;99.90
24152;DHT22;12311;50.866;4.332;2022-11-21T18:03:46;8.20;99.90
24152;DHT22;12311;50.866;4.332;2022-11-21T18:06:14;8.20;99.90
24152;DHT22;12311;50.866;4.332;2022-11-21T18:08:42;8.30;99.90
24152;DHT22;12311;50.866;4.332;2022-11-21T18:11:11;8.30;99.90
24152;DHT22;12311;50.866;4.332;2022-11-21T18:13:37;8.30;99.90